Terminal Aerodrome Forecast
Issued by NWS

Home | Current Version | Previous Version | Text Only | Print | Product List | Glossary On
Versions: 1 2 3 4 5 6 7 8 9 10 11 12 13 14 15 16 17 18 19 20 21 22 23 24
000
FTUS43 KDLH 310500
TAFHYR
TAF
KHYR 310532Z 3106/0106 18005KT P6SM OVC015
     FM311400 30006G14KT P6SM -SHSN SCT015 BKN025
     FM312200 01007G15KT P6SM -SHSN BKN035
     FM010300 03004KT P6SM BKN025=

USA.gov is the U.S. government's official web portal to all federal, state and local government web resources and services.